createdAt,value
2022-10-07T00:00:39.714Z,6.47
2022-10-07T00:01:42.081Z,5.77
2022-10-07T00:02:44.692Z,4.00
2022-10-07T00:03:47.081Z,4.80
2022-10-07T00:04:49.428Z,6.40
2022-10-07T00:06:24.081Z,4.67
2022-10-07T00:07:26.402Z,6.37
2022-10-07T00:08:30.118Z,4.37
2022-10-07T00:09:32.463Z,5.97
2022-10-07T00:10:40.966Z,6.93
2022-10-07T00:11:43.448Z,5.93
2022-10-07T00:12:45.790Z,3.70
2022-10-07T00:13:52.092Z,4.27
2022-10-07T00:14:54.631Z,6.00
2022-10-07T00:16:03.799Z,7.63
2022-10-07T00:17:08.617Z,3.40
2022-10-07T00:18:11.223Z,3.83
2022-10-07T00:19:16.455Z,7.47
2022-10-07T00:20:18.866Z,7.43
2022-10-07T00:21:21.190Z,6.30
2022-10-07T00:22:23.802Z,5.97
2022-10-07T00:23:26.119Z,5.27
2022-10-07T00:24:28.591Z,5.50
2022-10-07T00:25:31.002Z,5.13
2022-10-07T00:26:35.364Z,4.73
2022-10-07T00:27:37.680Z,6.40
2022-10-07T00:28:40.211Z,5.37
2022-10-07T00:29:42.610Z,5.23
2022-10-07T00:30:44.999Z,3.87
2022-10-07T00:31:48.304Z,4.80
2022-10-07T00:32:50.670Z,5.43
2022-10-07T00:33:54.761Z,5.30
2022-10-07T00:34:57.071Z,5.67
2022-10-07T00:35:59.481Z,6.03
2022-10-07T00:37:01.727Z,3.70
2022-10-07T00:38:03.951Z,5.30
2022-10-07T00:39:10.390Z,6.33
2022-10-07T00:40:13.462Z,8.10
2022-10-07T00:41:22.562Z,6.07
2022-10-07T00:42:24.853Z,4.23
2022-10-07T00:43:32.516Z,4.63
2022-10-07T00:44:48.835Z,4.83
2022-10-07T00:45:57.550Z,6.53
2022-10-07T00:47:03.515Z,4.20
2022-10-07T00:48:05.742Z,7.10
2022-10-07T00:49:14.085Z,4.80
2022-10-07T00:50:21.027Z,5.80
2022-10-07T00:51:27.100Z,7.77
2022-10-07T00:52:33.764Z,5.50
2022-10-07T00:53:39.636Z,5.77
2022-10-07T00:54:43.350Z,4.80
2022-10-07T00:55:48.141Z,5.27
2022-10-07T00:56:52.090Z,4.80
2022-10-07T00:57:59.218Z,4.70
2022-10-07T00:59:02.097Z,3.77
2022-10-07T01:00:06.736Z,5.33
2022-10-07T01:01:09.509Z,4.27
2022-10-07T01:02:15.398Z,4.17
2022-10-07T01:03:17.708Z,4.83
2022-10-07T01:04:20.388Z,4.73
2022-10-07T01:05:22.657Z,4.63
2022-10-07T01:06:24.915Z,3.97
2022-10-07T01:07:31.794Z,4.43
2022-10-07T01:08:34.488Z,6.63
2022-10-07T01:09:36.930Z,5.30
2022-10-07T01:11:16.283Z,5.50
2022-10-07T01:12:39.970Z,4.50
2022-10-07T01:14:15.866Z,5.13
2022-10-07T01:15:30.316Z,6.17
2022-10-07T01:16:58.886Z,5.10
2022-10-07T01:18:17.606Z,3.63
2022-10-07T01:19:37.097Z,5.13
2022-10-07T01:21:10.726Z,4.27
2022-10-07T01:22:56.549Z,4.83
2022-10-07T01:24:26.331Z,6.77
2022-10-07T01:25:34.491Z,5.70
2022-10-07T01:26:47.818Z,5.67
2022-10-07T01:28:01.203Z,6.40
2022-10-07T01:29:11.969Z,3.93
2022-10-07T01:30:14.285Z,3.27
2022-10-07T01:31:21.729Z,4.87
2022-10-07T01:32:47.953Z,4.73
2022-10-07T01:33:54.085Z,7.83
2022-10-07T01:35:01.295Z,6.30
2022-10-07T01:36:12.876Z,4.87
2022-10-07T01:37:17.944Z,7.00
2022-10-07T01:38:26.323Z,5.67
2022-10-07T01:39:34.525Z,6.37
2022-10-07T01:40:44.321Z,4.93
2022-10-07T01:41:47.311Z,5.60
2022-10-07T01:42:52.004Z,5.77
2022-10-07T01:43:59.100Z,6.60
2022-10-07T01:45:10.100Z,5.17
2022-10-07T01:46:18.539Z,4.87
2022-10-07T01:47:20.995Z,4.30
2022-10-07T01:48:23.850Z,5.40
2022-10-07T01:49:26.826Z,3.73
2022-10-07T01:50:30.937Z,4.70
2022-10-07T01:51:38.947Z,4.73
2022-10-07T01:53:12.836Z,4.87
2022-10-07T01:54:50.554Z,3.37
2022-10-07T01:55:55.751Z,6.50
2022-10-07T01:57:10.020Z,4.13
2022-10-07T01:58:50.817Z,5.87
2022-10-07T02:00:01.530Z,4.43
2022-10-07T02:01:38.776Z,4.17
2022-10-07T02:03:21.493Z,5.60
2022-10-07T02:04:59.267Z,4.37
2022-10-07T02:06:32.919Z,4.10
2022-10-07T02:07:51.432Z,3.93
2022-10-07T02:08:56.907Z,4.77
2022-10-07T02:10:27.480Z,4.23
2022-10-07T02:11:37.834Z,4.70
2022-10-07T02:12:47.015Z,7.47
2022-10-07T02:14:01.482Z,4.07
2022-10-07T02:15:19.704Z,5.60
2022-10-07T02:16:31.532Z,3.10
2022-10-07T02:17:42.642Z,4.73
2022-10-07T02:18:50.518Z,4.73
2022-10-07T02:19:56.634Z,6.30
2022-10-07T02:21:04.132Z,4.97
2022-10-07T02:22:09.316Z,3.70
2022-10-07T02:23:14.439Z,5.77
2022-10-07T02:24:21.413Z,6.00
2022-10-07T02:25:27.594Z,5.03
2022-10-07T02:26:32.534Z,5.97
2022-10-07T02:27:38.192Z,6.53
2022-10-07T02:28:45.275Z,4.63
2022-10-07T02:29:51.482Z,7.63
2022-10-07T02:31:01.495Z,6.57
2022-10-07T02:32:13.608Z,6.97
2022-10-07T02:33:19.317Z,8.07
2022-10-07T02:34:24.764Z,6.77
2022-10-07T02:35:33.001Z,5.40
2022-10-07T02:36:41.107Z,4.90
2022-10-07T02:37:47.951Z,3.37
2022-10-07T02:38:50.343Z,5.40
2022-10-07T02:39:55.737Z,5.87
2022-10-07T02:41:35.726Z,5.70
2022-10-07T02:42:52.925Z,5.93
2022-10-07T02:44:17.983Z,6.17
2022-10-07T02:45:28.488Z,5.33
2022-10-07T02:46:38.322Z,5.60
2022-10-07T02:47:47.858Z,4.80
2022-10-07T02:49:08.547Z,5.67
2022-10-07T02:50:14.979Z,4.97
2022-10-07T02:51:21.646Z,4.70
2022-10-07T02:52:31.414Z,5.07
2022-10-07T02:53:35.372Z,5.83
2022-10-07T02:55:04.503Z,4.13
2022-10-07T02:56:07.523Z,4.67
2022-10-07T02:57:13.475Z,4.93
2022-10-07T02:58:17.583Z,5.57
2022-10-07T02:59:22.027Z,4.90
2022-10-07T03:00:24.725Z,5.63
2022-10-07T03:01:32.073Z,4.93
2022-10-07T03:02:49.161Z,4.70
2022-10-07T03:03:53.969Z,4.80
2022-10-07T03:04:58.753Z,6.40
2022-10-07T03:06:01.361Z,4.63
2022-10-07T03:07:10.770Z,4.87
2022-10-07T03:08:13.211Z,3.90
2022-10-07T03:09:17.437Z,4.67
2022-10-07T03:10:19.794Z,5.87
2022-10-07T03:11:22.063Z,4.67
2022-10-07T03:12:24.419Z,7.33
2022-10-07T03:13:26.683Z,6.13
2022-10-07T03:14:35.853Z,4.30
2022-10-07T03:15:42.638Z,6.40
2022-10-07T03:16:47.805Z,5.23
2022-10-07T03:17:50.051Z,4.70
2022-10-07T03:18:52.734Z,5.70
2022-10-07T03:20:00.827Z,6.80
2022-10-07T03:21:03.874Z,5.03
2022-10-07T03:22:06.058Z,7.10
2022-10-07T03:23:14.028Z,4.30
2022-10-07T03:24:18.668Z,4.63
2022-10-07T03:25:22.855Z,4.90
2022-10-07T03:26:25.094Z,5.67
2022-10-07T03:27:28.925Z,5.27
2022-10-07T03:28:35.437Z,5.33
2022-10-07T03:29:38.140Z,7.20
2022-10-07T03:30:41.098Z,4.67
2022-10-07T03:31:43.478Z,4.37
2022-10-07T03:32:46.229Z,5.93
2022-10-07T03:33:48.708Z,5.37
2022-10-07T03:34:51.587Z,6.53
2022-10-07T03:35:54.016Z,5.80
2022-10-07T03:36:56.341Z,5.83
2022-10-07T03:37:58.568Z,5.77
2022-10-07T03:39:00.940Z,9.20
2022-10-07T03:40:04.571Z,6.87
2022-10-07T03:41:06.910Z,5.10
2022-10-07T03:42:09.632Z,4.60
2022-10-07T03:43:12.304Z,5.60
2022-10-07T03:44:14.817Z,7.37
2022-10-07T03:45:19.333Z,5.00
2022-10-07T03:46:21.590Z,5.90
2022-10-07T03:47:25.029Z,4.60
2022-10-07T03:48:27.243Z,5.57
2022-10-07T03:49:29.699Z,6.57
2022-10-07T03:50:31.953Z,7.63
2022-10-07T03:51:38.687Z,5.93
2022-10-07T03:52:45.723Z,9.10
2022-10-07T03:53:48.805Z,7.70
2022-10-07T03:54:53.318Z,5.53
2022-10-07T03:55:56.060Z,6.67
2022-10-07T03:56:58.429Z,6.10
2022-10-07T03:58:01.335Z,7.37
2022-10-07T03:59:04.872Z,5.23
2022-10-07T04:00:07.913Z,6.00
2022-10-07T04:01:17.550Z,5.97
2022-10-07T04:02:23.958Z,5.10
2022-10-07T04:03:26.367Z,6.73
2022-10-07T04:04:28.678Z,5.43
2022-10-07T04:05:32.829Z,7.83
2022-10-07T04:06:35.591Z,5.07
2022-10-07T04:07:44.070Z,6.10
2022-10-07T04:08:46.414Z,6.83
2022-10-07T04:09:49.293Z,9.57
2022-10-07T04:10:54.498Z,5.97
2022-10-07T04:11:56.666Z,9.03
2022-10-07T04:12:59.035Z,5.67
2022-10-07T04:14:01.555Z,4.63
2022-10-07T04:15:05.358Z,8.17
2022-10-07T04:16:08.760Z,5.87
2022-10-07T04:17:11.483Z,5.83
2022-10-07T04:18:13.748Z,5.90
2022-10-07T04:19:16.725Z,5.93
2022-10-07T04:20:19.040Z,6.83
2022-10-07T04:21:22.609Z,5.47
2022-10-07T04:22:26.036Z,4.63
2022-10-07T04:23:28.417Z,4.63
2022-10-07T04:24:30.745Z,4.90
2022-10-07T04:25:38.099Z,5.50
2022-10-07T04:26:45.408Z,6.13
2022-10-07T04:27:53.993Z,4.03
2022-10-07T04:29:00.225Z,4.97
2022-10-07T04:30:04.102Z,4.40
2022-10-07T04:31:09.023Z,7.07
2022-10-07T04:32:15.045Z,6.23
2022-10-07T04:33:19.299Z,6.20
2022-10-07T04:34:21.518Z,5.13
2022-10-07T04:35:23.972Z,6.30
2022-10-07T04:36:28.723Z,7.93
2022-10-07T04:37:44.196Z,5.23
2022-10-07T04:38:53.124Z,7.20
2022-10-07T04:40:01.240Z,4.67
2022-10-07T04:41:08.221Z,6.77
2022-10-07T04:42:32.273Z,5.30
2022-10-07T04:43:35.192Z,6.43
2022-10-07T04:44:41.538Z,5.80
2022-10-07T04:45:43.793Z,4.50
2022-10-07T04:46:46.011Z,5.80
2022-10-07T04:47:50.249Z,4.20
2022-10-07T04:48:54.801Z,5.23
2022-10-07T04:50:00.118Z,5.97
2022-10-07T04:51:04.458Z,8.63
2022-10-07T04:52:06.967Z,5.53
2022-10-07T04:53:18.366Z,5.60
2022-10-07T04:54:21.810Z,5.23
2022-10-07T04:55:28.468Z,6.00
2022-10-07T04:56:31.516Z,5.73
2022-10-07T04:57:35.016Z,5.47
2022-10-07T04:58:37.531Z,6.80
2022-10-07T04:59:43.055Z,5.13
2022-10-07T05:00:55.828Z,5.30
2022-10-07T05:02:02.259Z,5.07
2022-10-07T05:03:05.527Z,5.90
2022-10-07T05:04:11.814Z,8.87
2022-10-07T05:05:20.338Z,5.73
2022-10-07T05:06:22.928Z,6.27
2022-10-07T05:07:26.029Z,8.33
2022-10-07T05:08:28.578Z,5.57
2022-10-07T05:09:32.234Z,11.30
2022-10-07T05:10:39.874Z,6.83
2022-10-07T05:11:42.385Z,9.57
2022-10-07T05:12:55.715Z,7.90
2022-10-07T05:13:58.735Z,6.27
2022-10-07T05:15:03.178Z,6.30
2022-10-07T05:16:07.700Z,5.10
2022-10-07T05:17:10.737Z,6.83
2022-10-07T05:18:13.100Z,6.17
2022-10-07T05:19:15.614Z,6.20
2022-10-07T05:20:18.029Z,5.87
2022-10-07T05:21:20.313Z,7.40
2022-10-07T05:22:23.837Z,7.70
2022-10-07T05:23:28.950Z,5.87
2022-10-07T05:24:34.206Z,6.70
2022-10-07T05:25:37.497Z,5.77
2022-10-07T05:26:39.747Z,5.37
2022-10-07T05:27:44.094Z,7.73
2022-10-07T05:28:51.323Z,6.03
2022-10-07T05:29:59.659Z,4.93
2022-10-07T05:31:07.855Z,6.87
2022-10-07T05:32:13.230Z,8.00
2022-10-07T05:33:16.840Z,6.00
2022-10-07T05:34:20.392Z,4.87
2022-10-07T05:35:22.876Z,6.27
2022-10-07T05:36:25.182Z,7.67
2022-10-07T05:37:29.949Z,5.93
2022-10-07T05:38:33.926Z,5.87
2022-10-07T05:39:37.355Z,7.40
2022-10-07T05:40:45.573Z,6.53
2022-10-07T05:41:48.294Z,7.27
2022-10-07T05:42:56.230Z,6.33
2022-10-07T05:44:00.352Z,5.73
2022-10-07T05:45:04.408Z,6.07
2022-10-07T05:46:11.584Z,7.93
2022-10-07T05:47:18.456Z,8.80
2022-10-07T05:48:21.833Z,7.87
2022-10-07T05:49:24.560Z,6.50
2022-10-07T05:50:26.778Z,6.53
2022-10-07T05:51:29.028Z,5.60
2022-10-07T05:52:34.905Z,5.27
2022-10-07T05:53:41.413Z,5.80
2022-10-07T05:54:44.123Z,5.77
2022-10-07T05:55:47.971Z,7.07
2022-10-07T05:56:58.455Z,4.90
2022-10-07T05:58:00.799Z,6.50
2022-10-07T05:59:03.666Z,5.73
2022-10-07T06:00:07.364Z,5.93
2022-10-07T06:01:18.242Z,5.87
2022-10-07T06:02:20.603Z,6.93
2022-10-07T06:03:26.059Z,7.27
2022-10-07T06:04:31.374Z,6.67
2022-10-07T06:05:36.282Z,7.53
2022-10-07T06:06:38.839Z,5.80
2022-10-07T06:07:44.639Z,6.23
2022-10-07T06:08:48.157Z,5.37
2022-10-07T06:10:09.209Z,5.33
2022-10-07T06:11:34.255Z,7.83
2022-10-07T06:12:56.465Z,7.03
2022-10-07T06:13:59.422Z,7.47
2022-10-07T06:15:01.898Z,7.60
2022-10-07T06:16:09.439Z,8.07
2022-10-07T06:17:11.709Z,6.87
2022-10-07T06:18:15.350Z,7.33
2022-10-07T06:19:22.894Z,6.33
2022-10-07T06:20:27.956Z,5.73
2022-10-07T06:21:32.097Z,5.87
2022-10-07T06:22:38.189Z,5.17
2022-10-07T06:23:40.598Z,7.17
2022-10-07T06:24:43.551Z,4.93
2022-10-07T06:25:55.259Z,6.13
2022-10-07T06:26:59.424Z,5.63
2022-10-07T06:28:05.875Z,6.33
2022-10-07T06:29:09.051Z,8.77
2022-10-07T06:30:14.142Z,7.73
2022-10-07T06:31:22.497Z,5.50
2022-10-07T06:32:27.492Z,5.97
2022-10-07T06:33:29.674Z,6.53
2022-10-07T06:34:32.143Z,9.30
2022-10-07T06:35:34.380Z,7.03
2022-10-07T06:36:36.571Z,7.73
2022-10-07T06:37:39.441Z,9.00
2022-10-07T06:38:50.632Z,5.83
2022-10-07T06:39:59.505Z,6.57
2022-10-07T06:41:07.769Z,6.43
2022-10-07T06:42:10.713Z,6.40
2022-10-07T06:43:35.114Z,6.57
2022-10-07T06:44:40.814Z,7.50
2022-10-07T06:45:45.933Z,6.20
2022-10-07T06:46:51.687Z,6.47
2022-10-07T06:47:57.417Z,6.93
2022-10-07T06:48:59.600Z,7.97
2022-10-07T06:50:02.149Z,7.07
2022-10-07T06:51:04.863Z,6.97
2022-10-07T06:52:08.611Z,9.00
2022-10-07T06:53:11.712Z,6.60
2022-10-07T06:54:17.164Z,6.47
2022-10-07T06:55:19.869Z,6.97
2022-10-07T06:56:22.705Z,6.77
2022-10-07T06:57:44.703Z,9.47
2022-10-07T06:58:49.968Z,8.10
2022-10-07T06:59:58.048Z,9.57
2022-10-07T07:01:04.418Z,8.93
2022-10-07T07:02:07.220Z,9.90
2022-10-07T07:03:13.564Z,8.33
2022-10-07T07:04:15.868Z,8.10
2022-10-07T07:05:18.140Z,6.73
2022-10-07T07:06:22.138Z,10.33
2022-10-07T07:07:25.033Z,7.20
2022-10-07T07:08:29.311Z,9.47
2022-10-07T07:09:32.059Z,7.50
2022-10-07T07:10:42.977Z,6.88
2022-10-07T07:11:50.869Z,7.30
2022-10-07T07:12:58.645Z,7.35
2022-10-07T07:14:01.555Z,6.40
2022-10-07T07:15:07.329Z,7.78
2022-10-07T07:16:09.586Z,8.68
2022-10-07T07:17:12.371Z,7.25
2022-10-07T07:18:14.766Z,7.88
2022-10-07T07:19:17.139Z,7.05
2022-10-07T07:20:19.477Z,7.68
2022-10-07T07:21:23.021Z,7.45
2022-10-07T07:22:25.514Z,8.27
2022-10-07T07:23:28.470Z,7.20
2022-10-07T07:24:31.189Z,6.15
2022-10-07T07:25:38.786Z,6.55
2022-10-07T07:26:42.025Z,6.78
2022-10-07T07:27:50.313Z,6.05
2022-10-07T07:29:09.285Z,7.32
2022-10-07T07:30:22.104Z,6.43
2022-10-07T07:31:26.921Z,6.63
2022-10-07T07:32:30.283Z,6.10
2022-10-07T07:33:33.046Z,7.03
2022-10-07T07:34:38.352Z,7.15
2022-10-07T07:35:44.964Z,6.70
2022-10-07T07:36:51.209Z,5.80
2022-10-07T07:37:54.837Z,9.18
2022-10-07T07:39:09.836Z,5.05
2022-10-07T07:40:12.342Z,6.07
2022-10-07T07:41:22.725Z,6.90
2022-10-07T07:42:25.046Z,6.72
2022-10-07T07:43:27.371Z,5.57
2022-10-07T07:44:34.073Z,5.90
2022-10-07T07:45:38.035Z,6.90
2022-10-07T07:46:44.165Z,6.97
2022-10-07T07:47:49.606Z,7.18
2022-10-07T07:48:53.614Z,5.50
2022-10-07T07:49:56.116Z,5.57
2022-10-07T07:51:08.999Z,6.53
2022-10-07T07:52:11.224Z,5.22
2022-10-07T07:53:18.190Z,7.18
2022-10-07T07:54:20.651Z,6.13
2022-10-07T07:55:27.658Z,7.38
2022-10-07T07:56:32.221Z,7.72
2022-10-07T07:57:36.603Z,8.18
2022-10-07T07:58:42.247Z,7.15
2022-10-07T07:59:44.938Z,6.60
2022-10-07T08:01:06.721Z,6.95
2022-10-07T08:02:12.402Z,6.43
2022-10-07T08:03:17.213Z,6.35
2022-10-07T08:04:19.497Z,6.75
2022-10-07T08:05:24.111Z,6.50
2022-10-07T08:06:30.331Z,6.97
2022-10-07T08:07:35.558Z,7.40
2022-10-07T08:08:42.280Z,7.20
2022-10-07T08:09:45.723Z,8.25
2022-10-07T08:10:51.767Z,7.65
2022-10-07T08:11:54.387Z,8.20
2022-10-07T08:12:56.921Z,10.45
2022-10-07T08:13:59.906Z,6.13
2022-10-07T08:15:03.272Z,7.28
2022-10-07T08:16:06.487Z,5.32
2022-10-07T08:17:09.102Z,8.27
2022-10-07T08:18:11.455Z,6.15
2022-10-07T08:19:13.715Z,6.85
2022-10-07T08:20:16.795Z,8.05
2022-10-07T08:21:29.611Z,7.53
2022-10-07T08:22:33.817Z,5.53
2022-10-07T08:23:36.762Z,6.90
2022-10-07T08:24:38.992Z,6.10
2022-10-07T08:25:41.274Z,5.45
2022-10-07T08:26:43.598Z,6.82
2022-10-07T08:27:49.186Z,6.22
2022-10-07T08:28:51.743Z,6.90
2022-10-07T08:29:54.336Z,7.85
2022-10-07T08:31:08.515Z,7.20
2022-10-07T08:32:10.868Z,5.60
2022-10-07T08:33:13.112Z,5.57
2022-10-07T08:34:15.609Z,5.88
2022-10-07T08:35:17.825Z,5.20
2022-10-07T08:36:27.098Z,6.47
2022-10-07T08:37:30.202Z,8.20
2022-10-07T08:38:34.877Z,7.40
2022-10-07T08:39:37.038Z,8.05
2022-10-07T08:40:47.601Z,5.45
2022-10-07T08:42:13.374Z,8.27
2022-10-07T08:43:17.395Z,5.65
2022-10-07T08:44:33.155Z,5.38
2022-10-07T08:45:35.566Z,5.22
2022-10-07T08:46:41.629Z,9.88
2022-10-07T08:47:46.111Z,6.05
2022-10-07T08:48:58.367Z,8.52
2022-10-07T08:50:19.490Z,6.15
2022-10-07T08:51:30.038Z,9.38
2022-10-07T08:52:39.259Z,5.53
2022-10-07T08:53:47.713Z,8.70
2022-10-07T08:54:50.215Z,6.88
2022-10-07T08:55:56.575Z,9.10
2022-10-07T08:57:07.404Z,7.25
2022-10-07T08:58:25.002Z,7.75
2022-10-07T08:59:33.229Z,6.53
2022-10-07T09:00:50.334Z,9.27
2022-10-07T09:02:17.525Z,5.13
2022-10-07T09:04:08.039Z,5.18
2022-10-07T09:05:24.381Z,5.05
2022-10-07T09:06:55.480Z,7.60
2022-10-07T09:08:01.896Z,5.45
2022-10-07T09:09:15.155Z,6.00
2022-10-07T09:10:32.394Z,7.53
2022-10-07T09:11:42.540Z,5.18
2022-10-07T09:12:51.869Z,4.90
2022-10-07T09:14:12.626Z,6.57
2022-10-07T09:15:20.479Z,5.88
2022-10-07T09:16:32.498Z,4.50
2022-10-07T09:17:46.306Z,4.97
2022-10-07T09:18:54.197Z,5.57
2022-10-07T09:20:06.281Z,5.18
2022-10-07T09:21:25.665Z,7.03
2022-10-07T09:22:34.386Z,3.85
2022-10-07T09:23:37.016Z,5.53
2022-10-07T09:24:39.499Z,4.57
2022-10-07T09:25:42.365Z,4.55
2022-10-07T09:26:44.708Z,5.38
2022-10-07T09:27:48.926Z,4.30
2022-10-07T09:28:51.194Z,6.57
2022-10-07T09:29:53.396Z,4.85
2022-10-07T09:30:58.368Z,4.65
2022-10-07T09:32:00.628Z,7.20
2022-10-07T09:33:05.599Z,4.68
2022-10-07T09:34:19.805Z,4.15
2022-10-07T09:35:27.303Z,5.15
2022-10-07T09:36:29.508Z,4.80
2022-10-07T09:37:31.813Z,4.68
2022-10-07T09:38:43.072Z,5.07
2022-10-07T09:39:47.313Z,3.60
2022-10-07T09:41:08.754Z,6.60
2022-10-07T09:42:21.938Z,5.13
2022-10-07T09:43:24.815Z,3.40
2022-10-07T09:44:29.427Z,3.75
2022-10-07T09:45:32.926Z,4.15
2022-10-07T09:46:46.679Z,4.45
2022-10-07T09:47:54.166Z,5.25
2022-10-07T09:48:56.526Z,4.78
2022-10-07T09:49:59.977Z,4.57
2022-10-07T09:51:16.593Z,5.43
2022-10-07T09:52:23.422Z,5.15
2022-10-07T09:53:32.093Z,4.00
2022-10-07T09:54:36.640Z,5.35
2022-10-07T09:55:41.045Z,3.85
2022-10-07T09:56:45.883Z,4.57
2022-10-07T09:58:00.895Z,4.30
2022-10-07T09:59:25.995Z,4.22
2022-10-07T10:00:31.225Z,5.25
2022-10-07T10:01:33.490Z,4.70
2022-10-07T10:02:36.051Z,3.80
2022-10-07T10:03:38.668Z,3.88
2022-10-07T10:04:48.012Z,5.45
2022-10-07T10:06:01.161Z,3.67
2022-10-07T10:07:20.438Z,6.05
2022-10-07T10:08:34.705Z,6.22
2022-10-07T10:09:39.570Z,4.15
2022-10-07T10:10:51.821Z,4.45
2022-10-07T10:12:02.560Z,3.78
2022-10-07T10:13:09.997Z,4.88
2022-10-07T10:14:29.278Z,4.63
2022-10-07T10:15:42.992Z,5.97
2022-10-07T10:16:46.975Z,3.80
2022-10-07T10:17:50.204Z,5.00
2022-10-07T10:19:26.375Z,3.90
2022-10-07T10:20:28.756Z,4.38
2022-10-07T10:21:39.421Z,4.95
2022-10-07T10:22:41.662Z,5.18
2022-10-07T10:23:53.111Z,6.47
2022-10-07T10:25:18.128Z,5.97
2022-10-07T10:26:37.757Z,4.18
2022-10-07T10:27:44.478Z,5.05
2022-10-07T10:28:52.479Z,3.47
2022-10-07T10:30:21.431Z,4.55
2022-10-07T10:31:54.621Z,5.13
2022-10-07T10:33:25.181Z,5.13
2022-10-07T10:34:38.575Z,3.38
2022-10-07T10:35:53.107Z,4.18
2022-10-07T10:37:05.189Z,5.95
2022-10-07T10:38:30.478Z,6.82
2022-10-07T10:39:35.440Z,4.80
2022-10-07T10:40:41.929Z,6.60
2022-10-07T10:41:53.889Z,4.20
2022-10-07T10:43:29.308Z,4.03
2022-10-07T10:44:47.121Z,3.28
2022-10-07T10:46:01.925Z,3.08
2022-10-07T10:47:14.916Z,4.80
2022-10-07T10:48:44.348Z,3.50
2022-10-07T10:50:06.168Z,5.97
2022-10-07T10:51:28.177Z,5.03
2022-10-07T10:52:34.866Z,5.10
2022-10-07T10:53:51.814Z,4.10
2022-10-07T10:55:24.728Z,4.75
2022-10-07T10:56:51.235Z,4.22
2022-10-07T10:58:21.553Z,5.40
2022-10-07T10:59:38.904Z,4.53
2022-10-07T11:01:09.755Z,3.35
2022-10-07T11:02:35.160Z,4.85
2022-10-07T11:04:02.149Z,4.85
2022-10-07T11:05:18.845Z,3.85
2022-10-07T11:06:22.585Z,5.00
2022-10-07T11:07:37.643Z,5.32
2022-10-07T11:08:40.238Z,5.30
2022-10-07T11:09:57.342Z,4.53
2022-10-07T11:11:07.340Z,3.63
2022-10-07T11:12:41.097Z,4.47
2022-10-07T11:13:52.821Z,3.45
2022-10-07T11:15:02.111Z,5.05
2022-10-07T11:16:21.649Z,4.75
2022-10-07T11:17:30.821Z,3.10
2022-10-07T11:18:45.831Z,4.88
2022-10-07T11:20:49.553Z,3.83
2022-10-07T11:21:54.834Z,3.75
2022-10-07T11:23:35.235Z,4.05
2022-10-07T11:24:57.140Z,3.97
2022-10-07T11:26:32.273Z,3.92
2022-10-07T11:27:37.125Z,4.97
2022-10-07T11:28:41.916Z,2.90
2022-10-07T11:29:58.567Z,5.25
2022-10-07T11:31:52.535Z,4.13
2022-10-07T11:33:11.429Z,4.20
2022-10-07T11:34:19.736Z,4.00
2022-10-07T11:35:32.111Z,3.67
2022-10-07T11:37:00.041Z,3.75
2022-10-07T11:38:14.498Z,3.05
2022-10-07T11:39:16.909Z,4.25
2022-10-07T11:40:20.153Z,5.13
2022-10-07T11:41:29.985Z,4.32
2022-10-07T11:42:40.457Z,5.35
2022-10-07T11:43:56.515Z,3.90
2022-10-07T11:45:02.703Z,5.07
2022-10-07T11:46:18.782Z,3.47
2022-10-07T11:47:27.971Z,4.15
2022-10-07T11:48:51.991Z,3.67
2022-10-07T11:50:02.494Z,4.72
2022-10-07T11:51:07.315Z,4.82
2022-10-07T11:52:19.670Z,4.47
2022-10-07T11:53:28.672Z,4.18
2022-10-07T11:54:41.920Z,4.25
2022-10-07T11:55:55.058Z,4.72
2022-10-07T11:57:00.655Z,5.80
2022-10-07T11:58:04.360Z,3.72
2022-10-07T11:59:07.654Z,5.63
2022-10-07T12:00:30.424Z,5.88
2022-10-07T12:01:35.494Z,5.13
2022-10-07T12:02:39.403Z,3.72
2022-10-07T12:03:41.761Z,6.38
2022-10-07T12:04:43.996Z,4.20
2022-10-07T12:05:49.113Z,3.20
2022-10-07T12:07:28.822Z,4.15
2022-10-07T12:08:40.654Z,4.30
2022-10-07T12:10:18.175Z,4.50
2022-10-07T12:11:23.068Z,4.15
2022-10-07T12:12:25.337Z,3.60
2022-10-07T12:13:39.133Z,6.03
2022-10-07T12:14:43.604Z,4.78
2022-10-07T12:15:51.060Z,3.17
2022-10-07T12:16:55.922Z,2.92
2022-10-07T12:18:26.284Z,3.03
2022-10-07T12:19:28.878Z,3.78
2022-10-07T12:20:44.974Z,3.42
2022-10-07T12:22:05.694Z,3.92
2022-10-07T12:23:17.458Z,3.63
2022-10-07T12:24:20.982Z,5.30
2022-10-07T12:25:32.504Z,4.63
2022-10-07T12:26:35.180Z,2.67
2022-10-07T12:27:37.626Z,2.60
2022-10-07T12:28:40.913Z,3.25
2022-10-07T12:30:00.689Z,3.40
2022-10-07T12:31:06.356Z,4.43
2022-10-07T12:32:52.168Z,5.80
2022-10-07T12:34:09.246Z,9.40
2022-10-07T12:35:29.797Z,4.10
2022-10-07T12:36:32.540Z,4.25
2022-10-07T12:37:50.228Z,4.78
2022-10-07T12:38:59.173Z,4.00
2022-10-07T12:40:10.583Z,2.92
2022-10-07T12:41:25.934Z,3.63
2022-10-07T12:42:29.862Z,2.22
2022-10-07T12:43:38.080Z,3.17
2022-10-07T12:44:48.918Z,2.20
2022-10-07T12:45:52.373Z,5.13
2022-10-07T12:47:12.729Z,4.18
2022-10-07T12:48:21.827Z,4.15
2022-10-07T12:49:36.837Z,2.95
2022-10-07T12:50:40.516Z,4.40
2022-10-07T12:51:44.683Z,4.82
2022-10-07T12:52:57.090Z,3.92
2022-10-07T12:54:00.375Z,2.50
2022-10-07T12:55:09.628Z,2.95
2022-10-07T12:56:21.163Z,2.40
2022-10-07T12:57:31.095Z,2.20
2022-10-07T12:59:10.304Z,3.08
2022-10-07T13:00:17.002Z,3.03
2022-10-07T13:01:49.543Z,2.35
2022-10-07T13:03:19.281Z,3.55
2022-10-07T13:04:39.203Z,2.80
2022-10-07T13:05:50.506Z,2.30
2022-10-07T13:07:20.528Z,3.28
2022-10-07T13:08:35.689Z,2.55
2022-10-07T13:09:44.162Z,2.58
2022-10-07T13:11:22.011Z,3.67
2022-10-07T13:12:51.086Z,3.10
2022-10-07T13:13:59.281Z,3.60
2022-10-07T13:15:26.448Z,3.58
2022-10-07T13:16:35.405Z,3.00
2022-10-07T13:18:03.204Z,2.72
2022-10-07T13:19:35.285Z,4.13
2022-10-07T13:20:51.092Z,2.95
2022-10-07T13:22:17.379Z,2.38
2022-10-07T13:23:26.206Z,2.65
2022-10-07T13:24:30.135Z,2.70
2022-10-07T13:25:33.317Z,2.30
2022-10-07T13:26:37.472Z,2.67
2022-10-07T13:27:42.076Z,3.08
2022-10-07T13:28:50.812Z,2.92
2022-10-07T13:29:54.100Z,3.78
2022-10-07T13:31:13.772Z,2.58
2022-10-07T13:32:24.731Z,2.50
2022-10-07T13:33:30.370Z,3.33
2022-10-07T13:34:33.593Z,2.50
2022-10-07T13:35:39.680Z,3.88
2022-10-07T13:36:44.675Z,3.30
2022-10-07T13:37:47.686Z,2.78
2022-10-07T13:38:57.258Z,5.95
2022-10-07T13:40:34.187Z,2.38
2022-10-07T13:41:37.788Z,2.95
2022-10-07T13:42:43.819Z,4.15
2022-10-07T13:43:47.572Z,2.60
2022-10-07T13:44:49.818Z,3.67
2022-10-07T13:45:52.422Z,3.15
2022-10-07T13:47:00.425Z,4.50
2022-10-07T13:48:03.300Z,2.78
2022-10-07T13:49:07.805Z,3.42
2022-10-07T13:50:16.620Z,3.63
2022-10-07T13:51:34.844Z,3.20
2022-10-07T13:52:44.685Z,3.10
2022-10-07T13:53:55.387Z,2.22
2022-10-07T13:54:57.651Z,2.50
2022-10-07T13:56:22.310Z,2.20
2022-10-07T13:57:27.405Z,2.60
2022-10-07T13:58:33.348Z,2.92
2022-10-07T13:59:36.821Z,4.45
2022-10-07T14:00:47.307Z,2.28
2022-10-07T14:01:52.415Z,2.25
2022-10-07T14:02:54.786Z,2.35
2022-10-07T14:04:34.269Z,2.30
2022-10-07T14:05:48.399Z,3.70
2022-10-07T14:07:01.434Z,2.90
2022-10-07T14:08:18.251Z,2.15
2022-10-07T14:09:45.119Z,6.20
2022-10-07T14:10:58.186Z,4.22
2022-10-07T14:12:14.796Z,2.67
2022-10-07T14:13:17.323Z,3.72
2022-10-07T14:14:33.117Z,2.90
2022-10-07T14:15:37.156Z,3.75
2022-10-07T14:16:40.274Z,4.00
2022-10-07T14:17:58.990Z,3.60
2022-10-07T14:19:01.256Z,4.28
2022-10-07T14:20:25.350Z,2.35
2022-10-07T14:21:28.335Z,3.58
2022-10-07T14:22:36.551Z,1.90
2022-10-07T14:23:38.835Z,3.80
2022-10-07T14:24:41.853Z,2.63
2022-10-07T14:25:59.252Z,2.67
2022-10-07T14:27:02.231Z,2.45
2022-10-07T14:28:16.907Z,4.53
2022-10-07T14:29:28.231Z,5.93
2022-10-07T14:30:56.320Z,3.60
2022-10-07T14:32:39.129Z,2.17
2022-10-07T14:34:17.046Z,3.05
2022-10-07T14:35:22.208Z,1.98
2022-10-07T14:36:24.659Z,2.20
2022-10-07T14:37:31.054Z,2.92
2022-10-07T14:38:36.434Z,3.72
2022-10-07T14:39:38.750Z,2.42
2022-10-07T14:40:41.088Z,5.95
2022-10-07T14:41:43.374Z,2.08
2022-10-07T14:42:46.107Z,2.58
2022-10-07T14:43:52.473Z,2.28
2022-10-07T14:44:57.239Z,2.85
2022-10-07T14:46:17.976Z,3.80
2022-10-07T14:47:25.105Z,3.53
2022-10-07T14:48:28.029Z,2.65
2022-10-07T14:49:30.302Z,3.40
2022-10-07T14:50:32.589Z,4.75
2022-10-07T14:51:35.855Z,6.63
2022-10-07T14:52:52.620Z,3.67
2022-10-07T14:54:05.962Z,2.10
2022-10-07T14:55:14.612Z,3.42
2022-10-07T14:56:24.919Z,5.57
2022-10-07T14:57:27.380Z,4.85
2022-10-07T14:58:29.707Z,3.22
2022-10-07T14:59:31.894Z,3.55
2022-10-07T15:00:39.305Z,4.80
2022-10-07T15:01:42.974Z,2.22
2022-10-07T15:02:45.555Z,2.60
2022-10-07T15:03:51.717Z,2.83
2022-10-07T15:04:54.244Z,6.38
2022-10-07T15:05:58.181Z,4.55
2022-10-07T15:07:00.439Z,3.22
2022-10-07T15:08:03.432Z,3.40
2022-10-07T15:09:05.693Z,2.42
2022-10-07T15:10:26.842Z,4.63
2022-10-07T15:11:29.301Z,2.00
2022-10-07T15:12:33.306Z,3.28
2022-10-07T15:13:35.510Z,2.15
2022-10-07T15:14:37.818Z,2.30
2022-10-07T15:15:42.681Z,1.85
2022-10-07T15:16:44.961Z,2.65
2022-10-07T15:17:48.112Z,3.35